createdAt,value
2023-04-20T00:00:17.806Z,8.08
2023-04-20T00:02:46.397Z,8.05
2023-04-20T00:05:14.116Z,8.04
2023-04-20T00:07:41.752Z,8.03
2023-04-20T00:10:12.168Z,8.02
2023-04-20T00:12:39.891Z,8.01
2023-04-20T00:15:07.827Z,8.00
2023-04-20T00:17:36.662Z,7.96
2023-04-20T00:20:05.358Z,7.96
2023-04-20T00:22:32.982Z,7.94
2023-04-20T00:25:00.574Z,7.92
2023-04-20T00:27:28.876Z,7.89
2023-04-20T00:29:56.570Z,7.88
2023-04-20T00:32:24.295Z,7.87
2023-04-20T00:34:51.879Z,7.85
2023-04-20T00:37:19.432Z,7.85
2023-04-20T00:39:47.246Z,7.86
2023-04-20T00:42:15.146Z,7.84
2023-04-20T00:44:42.679Z,7.82
2023-04-20T00:50:31.780Z,7.82
2023-04-20T00:52:59.667Z,7.81
2023-04-20T00:55:28.472Z,7.79
2023-04-20T00:57:56.445Z,7.78
2023-04-20T01:00:24.463Z,7.78
2023-04-20T01:02:52.143Z,7.77
2023-04-20T01:05:20.561Z,7.75
2023-04-20T01:07:49.611Z,7.75
2023-04-20T01:10:17.185Z,7.75
2023-04-20T01:12:44.999Z,7.73
2023-04-20T01:15:12.724Z,7.72
2023-04-20T01:18:03.783Z,7.70
2023-04-20T01:20:31.593Z,7.68
2023-04-20T01:22:59.116Z,7.67
2023-04-20T01:25:26.750Z,7.65
2023-04-20T01:27:54.236Z,7.65
2023-04-20T01:30:23.059Z,7.65
2023-04-20T01:32:51.444Z,7.65
2023-04-20T01:35:19.148Z,7.65
2023-04-20T01:37:46.729Z,7.64
2023-04-20T01:40:15.228Z,7.64
2023-04-20T01:42:42.838Z,7.65
2023-04-20T01:45:10.597Z,7.65
2023-04-20T01:47:38.205Z,7.64
2023-04-20T01:50:08.593Z,7.62
2023-04-20T01:52:36.236Z,7.62
2023-04-20T01:55:03.944Z,7.62
2023-04-20T01:57:31.640Z,7.61
2023-04-20T01:59:59.179Z,7.62
2023-04-20T02:02:27.860Z,7.62
2023-04-20T02:04:55.616Z,7.61
2023-04-20T02:07:23.237Z,7.63
2023-04-20T02:09:50.897Z,7.66
2023-04-20T02:12:18.454Z,7.71
2023-04-20T02:14:46.140Z,7.75
2023-04-20T02:17:15.097Z,7.81
2023-04-20T02:19:42.829Z,7.85
2023-04-20T02:22:10.691Z,7.91
2023-04-20T02:24:38.436Z,7.95
2023-04-20T02:27:06.029Z,7.99
2023-04-20T02:29:33.555Z,8.02
2023-04-20T02:32:01.270Z,8.02
2023-04-20T02:34:28.795Z,7.96
2023-04-20T02:36:57.743Z,7.89
2023-04-20T02:39:25.764Z,7.84
2023-04-20T02:41:55.075Z,7.78
2023-04-20T02:44:22.719Z,7.71
2023-04-20T02:46:51.117Z,7.66
2023-04-20T02:49:19.663Z,7.61
2023-04-20T02:51:47.716Z,7.57
2023-04-20T02:54:15.347Z,7.54
2023-04-20T02:56:43.032Z,7.50
2023-04-20T02:59:11.176Z,7.45
2023-04-20T03:01:38.865Z,7.40
2023-04-20T03:04:13.419Z,7.35
2023-04-20T03:06:50.736Z,7.33
2023-04-20T03:09:25.483Z,7.28
2023-04-20T03:12:02.380Z,7.21
2023-04-20T03:14:44.610Z,7.14
2023-04-20T03:17:12.536Z,7.11
2023-04-20T03:19:40.779Z,7.09
2023-04-20T03:22:11.332Z,7.06
2023-04-20T03:24:39.004Z,7.00
2023-04-20T03:27:17.361Z,6.97
2023-04-20T03:30:03.536Z,6.93
2023-04-20T03:32:34.351Z,6.89
2023-04-20T03:35:02.108Z,6.84
2023-04-20T03:37:29.770Z,6.84
2023-04-20T03:39:57.323Z,6.84
2023-04-20T03:42:26.082Z,6.84
2023-04-20T03:44:55.560Z,6.84
2023-04-20T03:47:23.157Z,6.83
2023-04-20T03:49:53.763Z,6.79
2023-04-20T03:52:21.622Z,6.79
2023-04-20T03:54:49.373Z,6.80
2023-04-20T03:57:17.843Z,6.81
2023-04-20T03:59:48.627Z,6.83
2023-04-20T04:11:32.715Z,6.78
2023-04-20T04:14:01.277Z,6.76
2023-04-20T04:16:29.732Z,6.76
2023-04-20T04:18:57.562Z,6.76
2023-04-20T04:21:25.567Z,6.74
2023-04-20T04:23:59.244Z,6.73
2023-04-20T04:26:58.624Z,6.73
2023-04-20T04:29:27.968Z,6.72
2023-04-20T04:31:59.019Z,6.71
2023-04-20T04:34:29.968Z,6.69
2023-04-20T04:36:58.117Z,6.65
2023-04-20T04:39:37.542Z,6.62
2023-04-20T04:42:13.220Z,6.61
2023-04-20T04:44:43.683Z,6.61
2023-04-20T04:47:17.701Z,6.60
2023-04-20T04:49:47.323Z,6.60
2023-04-20T04:52:17.724Z,6.57
2023-04-20T04:54:45.324Z,6.55
2023-04-20T04:57:12.926Z,6.55
2023-04-20T04:59:40.865Z,6.55
2023-04-20T05:02:08.450Z,6.56
2023-04-20T05:04:36.227Z,6.56
2023-04-20T05:07:03.948Z,6.57
2023-04-20T05:09:33.695Z,6.55
2023-04-20T05:12:01.235Z,6.55
2023-04-20T05:14:29.110Z,6.54
2023-04-20T05:16:56.748Z,6.54
2023-04-20T05:19:24.398Z,6.54
2023-04-20T05:21:51.992Z,6.56
2023-04-20T05:24:19.632Z,6.57
2023-04-20T05:26:47.215Z,6.58
2023-04-20T05:29:16.499Z,6.63
2023-04-20T05:31:45.320Z,6.78
2023-04-20T05:34:12.967Z,6.96
2023-04-20T05:36:41.281Z,7.07
2023-04-20T05:39:09.157Z,7.12
2023-04-20T05:41:36.662Z,7.13
2023-04-20T05:44:04.289Z,7.11
2023-04-20T05:46:31.827Z,7.16
2023-04-20T05:48:59.403Z,7.32
2023-04-20T05:51:30.489Z,7.44
2023-04-20T05:53:58.373Z,7.45
2023-04-20T05:56:25.874Z,7.46
2023-04-20T05:58:54.887Z,7.52
2023-04-20T06:01:22.441Z,7.61
2023-04-20T06:03:50.283Z,7.73
2023-04-20T06:06:17.982Z,7.92
2023-04-20T06:08:45.608Z,8.16
2023-04-20T06:11:13.173Z,8.42
2023-04-20T06:13:40.699Z,8.65
2023-04-20T06:16:11.016Z,8.92
2023-04-20T06:18:38.880Z,9.18
2023-04-20T06:21:10.294Z,9.59
2023-04-20T06:23:38.406Z,10.15
2023-04-20T06:26:08.923Z,10.75
2023-04-20T06:28:39.721Z,11.41
2023-04-20T06:31:07.807Z,11.94
2023-04-20T06:33:35.689Z,12.40
2023-04-20T06:36:07.340Z,12.92
2023-04-20T06:38:34.902Z,13.43
2023-04-20T06:41:02.889Z,13.88
2023-04-20T06:43:31.168Z,14.34
2023-04-20T06:45:59.352Z,14.70
2023-04-20T06:48:31.682Z,15.11
2023-04-20T06:51:01.814Z,15.58
2023-04-20T06:53:29.353Z,15.91
2023-04-20T06:55:57.306Z,16.08
2023-04-20T06:58:25.167Z,16.25
2023-04-20T07:00:52.788Z,16.66
2023-04-20T07:03:20.671Z,16.92
2023-04-20T07:05:48.415Z,17.13
2023-04-20T07:08:16.213Z,17.29
2023-04-20T07:10:43.867Z,17.57
2023-04-20T07:13:11.424Z,17.93
2023-04-20T07:15:38.968Z,18.15
2023-04-20T07:18:06.727Z,18.29
2023-04-20T07:20:34.370Z,18.49
2023-04-20T07:23:01.910Z,18.62
2023-04-20T07:25:31.654Z,18.87
2023-04-20T07:27:59.479Z,18.85
2023-04-20T07:30:27.235Z,19.10
2023-04-20T07:32:54.885Z,19.30
2023-04-20T07:35:22.730Z,19.58
2023-04-20T07:37:50.674Z,19.79
2023-04-20T07:40:18.386Z,19.82
2023-04-20T07:42:46.088Z,19.86
2023-04-20T07:48:12.537Z,19.92
2023-04-20T07:50:40.598Z,20.11
2023-04-20T07:53:08.305Z,20.38
2023-04-20T07:55:36.137Z,20.65
2023-04-20T07:58:03.780Z,20.77
2023-04-20T08:00:31.298Z,20.79
2023-04-20T08:02:59.531Z,20.87
2023-04-20T08:05:27.751Z,21.12
2023-04-20T08:07:55.351Z,21.22
2023-04-20T08:10:23.180Z,21.33
2023-04-20T08:13:08.964Z,21.55
2023-04-20T08:15:39.554Z,21.86
2023-04-20T08:18:07.169Z,21.99
2023-04-20T08:20:34.869Z,22.30
2023-04-20T08:23:02.683Z,22.46
2023-04-20T08:25:32.397Z,22.41
2023-04-20T08:28:00.031Z,22.46
2023-04-20T08:30:27.674Z,22.72
2023-04-20T08:32:55.286Z,23.11
2023-04-20T08:35:23.130Z,23.52
2023-04-20T08:37:50.807Z,23.72
2023-04-20T08:40:20.165Z,23.70
2023-04-20T08:42:47.744Z,23.65
2023-04-20T08:45:15.331Z,23.48
2023-04-20T08:47:43.185Z,23.50
2023-04-20T08:50:11.395Z,23.64
2023-04-20T08:52:39.831Z,23.69
2023-04-20T08:55:08.072Z,23.86
2023-04-20T08:57:35.582Z,23.83
2023-04-20T09:00:13.871Z,23.54
2023-04-20T09:02:50.968Z,23.74
2023-04-20T09:05:29.687Z,24.01
2023-04-20T09:08:06.518Z,24.23
2023-04-20T09:11:17.798Z,24.17
2023-04-20T09:13:49.889Z,24.46
2023-04-20T09:16:17.854Z,24.31
2023-04-20T09:18:56.274Z,24.02
2023-04-20T09:21:31.569Z,23.91
2023-04-20T09:24:08.774Z,24.10
2023-04-20T09:26:57.804Z,23.73
2023-04-20T09:35:41.165Z,24.08
2023-04-20T09:38:09.905Z,24.33
2023-04-20T09:40:38.081Z,24.65
2023-04-20T09:43:46.058Z,24.59
2023-04-20T09:46:13.894Z,24.27
2023-04-20T09:48:41.690Z,24.19
2023-04-20T09:51:09.456Z,23.88
2023-04-20T09:53:37.292Z,23.84
2023-04-20T09:56:06.985Z,23.75
2023-04-20T09:58:35.207Z,23.65
2023-04-20T10:01:02.817Z,23.13
2023-04-20T10:03:30.814Z,22.94
2023-04-20T10:05:58.551Z,23.07
2023-04-20T10:08:26.695Z,23.14
2023-04-20T10:10:54.283Z,23.44
2023-04-20T10:13:33.530Z,23.92
2023-04-20T10:16:01.247Z,24.30
2023-04-20T10:18:29.190Z,24.59
2023-04-20T10:21:11.041Z,24.80
2023-04-20T10:23:52.079Z,24.69
2023-04-20T10:26:19.927Z,24.61
2023-04-20T10:28:47.757Z,24.68
2023-04-20T10:31:17.142Z,24.57
2023-04-20T10:33:55.693Z,24.54
2023-04-20T10:36:31.372Z,24.83
2023-04-20T10:39:01.581Z,24.89
2023-04-20T10:41:29.181Z,24.58
2023-04-20T10:44:07.543Z,24.76
2023-04-20T10:46:35.410Z,24.71
2023-04-20T10:49:03.711Z,24.36
2023-04-20T10:51:31.648Z,24.36
2023-04-20T10:54:08.177Z,24.27
2023-04-20T10:56:46.768Z,24.39
2023-04-20T10:59:22.509Z,24.92
2023-04-20T11:01:51.331Z,25.36
2023-04-20T11:04:19.369Z,25.33
2023-04-20T11:06:48.595Z,25.26
2023-04-20T11:09:26.701Z,25.42
2023-04-20T11:12:05.761Z,25.61
2023-04-20T11:14:50.383Z,25.69
2023-04-20T11:17:18.147Z,25.47
2023-04-20T11:19:47.163Z,25.12
2023-04-20T11:22:23.088Z,25.02
2023-04-20T11:24:50.745Z,25.09
2023-04-20T11:27:24.876Z,25.27
2023-04-20T11:29:59.686Z,25.08
2023-04-20T11:32:27.542Z,24.93
2023-04-20T11:35:07.536Z,24.78
2023-04-20T11:37:47.816Z,24.70
2023-04-20T11:40:15.517Z,24.89
2023-04-20T11:42:43.949Z,24.76
2023-04-20T11:45:11.796Z,24.89
2023-04-20T11:47:41.614Z,25.08
2023-04-20T11:50:10.475Z,25.15
2023-04-20T11:52:38.130Z,24.97
2023-04-20T11:55:06.307Z,25.14
2023-04-20T11:57:34.726Z,24.93
2023-04-20T12:00:02.428Z,24.55
2023-04-20T12:02:41.567Z,24.29
2023-04-20T12:05:09.800Z,23.95
2023-04-20T12:07:37.426Z,23.63
2023-04-20T12:10:06.407Z,23.58
2023-04-20T12:12:34.566Z,23.74
2023-04-20T12:15:02.196Z,23.92
2023-04-20T12:17:29.776Z,23.78
2023-04-20T12:19:58.043Z,23.76
2023-04-20T12:22:25.645Z,24.00
2023-04-20T12:24:53.240Z,24.14
2023-04-20T12:27:20.796Z,23.83
2023-04-20T12:29:48.607Z,23.72
2023-04-20T12:32:16.143Z,23.84
2023-04-20T12:34:45.646Z,23.64
2023-04-20T12:37:15.978Z,23.59
2023-04-20T12:39:43.581Z,23.47
2023-04-20T12:42:11.071Z,23.27
2023-04-20T12:44:38.635Z,22.97
2023-04-20T12:47:06.473Z,22.99
2023-04-20T12:49:34.301Z,22.92
2023-04-20T12:52:02.012Z,23.15
2023-04-20T12:54:29.638Z,23.40
2023-04-20T12:56:57.192Z,23.26
2023-04-20T12:59:24.822Z,23.16
2023-04-20T13:01:52.461Z,23.12
2023-04-20T13:04:20.494Z,22.87
2023-04-20T13:06:49.226Z,22.62
2023-04-20T13:09:16.889Z,22.41
2023-04-20T13:11:44.777Z,22.54
2023-04-20T13:14:12.441Z,22.34
2023-04-20T13:16:40.569Z,22.23
2023-04-20T13:19:08.205Z,22.10
2023-04-20T13:21:35.917Z,21.93
2023-04-20T13:24:03.793Z,21.91
2023-04-20T13:26:31.703Z,21.92
2023-04-20T13:28:59.421Z,22.05
2023-04-20T13:31:27.275Z,22.08
2023-04-20T13:33:55.045Z,22.00
2023-04-20T13:36:28.355Z,21.68
2023-04-20T13:38:56.519Z,21.33
2023-04-20T13:41:24.091Z,21.24
2023-04-20T13:43:51.736Z,21.33
2023-04-20T13:46:20.254Z,21.01
2023-04-20T13:48:47.938Z,20.66
2023-04-20T13:51:15.495Z,20.53
2023-04-20T13:53:43.204Z,20.53
2023-04-20T13:56:11.011Z,20.68
2023-04-20T13:58:38.624Z,20.68
2023-04-20T14:01:11.251Z,20.58
2023-04-20T14:03:39.174Z,20.38
2023-04-20T14:06:06.918Z,20.31
2023-04-20T14:08:34.529Z,20.13
2023-04-20T14:11:02.476Z,19.98
2023-04-20T14:13:30.039Z,19.65
2023-04-20T14:15:57.755Z,19.48
2023-04-20T14:18:25.808Z,19.29
2023-04-20T14:20:53.475Z,19.18
2023-04-20T14:23:20.998Z,19.21
2023-04-20T14:25:48.587Z,18.91
2023-04-20T14:28:17.808Z,18.83
2023-04-20T14:30:48.508Z,18.60
2023-04-20T14:33:16.307Z,18.28
2023-04-20T14:35:43.941Z,18.04
2023-04-20T14:38:11.679Z,17.94
2023-04-20T14:40:39.312Z,17.69
2023-04-20T14:43:06.912Z,17.34
2023-04-20T14:45:34.495Z,17.28
2023-04-20T14:48:02.129Z,17.20
2023-04-20T14:50:29.684Z,17.19
2023-04-20T14:52:57.971Z,17.14
2023-04-20T14:55:26.209Z,17.11
2023-04-20T14:57:55.435Z,17.00
2023-04-20T15:00:24.741Z,16.85
2023-04-20T15:02:53.171Z,16.73
2023-04-20T15:05:21.014Z,16.63
2023-04-20T15:07:50.970Z,16.49
2023-04-20T15:10:20.505Z,16.39
2023-04-20T15:12:48.777Z,16.39
2023-04-20T15:15:17.155Z,16.42
2023-04-20T15:17:47.519Z,16.45
2023-04-20T15:20:15.649Z,16.45
2023-04-20T15:22:44.002Z,16.41
2023-04-20T15:25:11.850Z,16.41
2023-04-20T15:27:39.528Z,16.38
2023-04-20T15:30:07.947Z,16.32
2023-04-20T15:32:35.593Z,16.35
2023-04-20T15:35:03.591Z,16.25
2023-04-20T15:37:31.475Z,16.14
2023-04-20T15:39:59.291Z,15.99
2023-04-20T15:42:27.654Z,15.93
2023-04-20T15:44:55.433Z,15.96
2023-04-20T15:47:22.984Z,15.91
2023-04-20T15:49:50.608Z,15.87
2023-04-20T15:52:18.143Z,15.77
2023-04-20T15:54:47.173Z,15.62
2023-04-20T15:57:14.753Z,15.51
2023-04-20T15:59:42.432Z,15.48
2023-04-20T16:02:10.036Z,15.49
2023-04-20T16:04:37.740Z,15.46
2023-04-20T16:07:05.552Z,15.43
2023-04-20T16:09:33.096Z,15.34
2023-04-20T16:12:03.110Z,15.27
2023-04-20T16:14:30.904Z,15.26
2023-04-20T16:17:02.631Z,15.24
2023-04-20T16:19:31.656Z,15.15
2023-04-20T16:21:59.290Z,15.07
2023-04-20T16:24:27.108Z,15.00
2023-04-20T16:26:57.160Z,14.96
2023-04-20T16:29:24.727Z,14.93
2023-04-20T16:31:52.536Z,14.84
2023-04-20T16:34:20.443Z,14.76
2023-04-20T16:36:50.237Z,14.68
2023-04-20T16:39:18.676Z,14.63
2023-04-20T16:41:46.539Z,14.55
2023-04-20T16:44:14.601Z,14.50
2023-04-20T16:46:42.383Z,14.45
2023-04-20T16:49:10.183Z,14.42
2023-04-20T16:51:38.071Z,14.40
2023-04-20T16:54:05.809Z,14.28
2023-04-20T16:56:33.369Z,14.21
2023-04-20T16:59:01.099Z,14.18
2023-04-20T17:01:28.687Z,14.14
2023-04-20T17:03:56.435Z,14.13
2023-04-20T17:06:24.044Z,14.14
2023-04-20T17:08:51.882Z,14.09
2023-04-20T17:11:19.863Z,14.02
2023-04-20T17:13:47.473Z,13.96
2023-04-20T17:16:15.064Z,13.94
2023-04-20T17:18:42.654Z,13.95
2023-04-20T17:21:10.174Z,13.95
2023-04-20T17:23:37.772Z,13.88
2023-04-20T17:26:06.796Z,13.82
2023-04-20T17:28:34.436Z,13.80
2023-04-20T17:31:01.960Z,13.82
2023-04-20T17:33:29.968Z,13.82
2023-04-20T17:35:57.621Z,13.79
2023-04-20T17:38:25.183Z,13.78
2023-04-20T17:40:52.864Z,13.74
2023-04-20T17:43:20.513Z,13.72
2023-04-20T17:45:51.129Z,13.65
2023-04-20T17:48:18.795Z,13.55
2023-04-20T17:50:50.554Z,13.47
2023-04-20T17:53:18.229Z,13.45
2023-04-20T17:55:45.970Z,13.41
2023-04-20T17:58:13.715Z,13.32
2023-04-20T18:00:41.278Z,13.22
2023-04-20T18:03:09.521Z,13.14
2023-04-20T18:05:37.211Z,13.08
2023-04-20T18:08:05.105Z,13.07
2023-04-20T18:10:34.148Z,13.09
2023-04-20T18:13:01.747Z,13.01
2023-04-20T18:15:29.451Z,12.93
2023-04-20T18:17:57.108Z,12.87
2023-04-20T18:20:24.727Z,12.83
2023-04-20T18:22:52.368Z,12.78
2023-04-20T18:25:20.274Z,12.73
2023-04-20T18:27:47.905Z,12.71
2023-04-20T18:30:16.272Z,12.68
2023-04-20T18:32:44.072Z,12.65
2023-04-20T18:35:11.708Z,12.63
2023-04-20T18:37:39.380Z,12.55
2023-04-20T18:40:07.830Z,12.48
2023-04-20T18:42:35.414Z,12.44
2023-04-20T18:45:03.626Z,12.39
2023-04-20T18:47:32.019Z,12.39
2023-04-20T18:49:59.602Z,12.34
2023-04-20T18:52:27.226Z,12.33
2023-04-20T18:54:55.594Z,12.32
2023-04-20T19:29:07.755Z,11.40
2023-04-20T19:31:38.002Z,11.33
2023-04-20T19:34:06.482Z,11.29
2023-04-20T19:36:34.631Z,11.24
2023-04-20T19:39:02.522Z,11.18
2023-04-20T19:41:30.095Z,11.13
2023-04-20T19:43:59.678Z,11.09
2023-04-20T19:46:27.425Z,11.02
2023-04-20T19:48:54.983Z,10.95
2023-04-20T19:51:25.469Z,10.89
2023-04-20T19:53:53.389Z,10.85
2023-04-20T19:56:21.013Z,10.80
2023-04-20T19:58:48.652Z,10.75
2023-04-20T20:01:16.418Z,10.69
2023-04-20T20:03:44.283Z,10.63
2023-04-20T20:06:12.427Z,10.60
2023-04-20T20:08:49.238Z,10.56
2023-04-20T20:11:16.957Z,10.50
2023-04-20T20:14:25.109Z,10.46
2023-04-20T20:16:52.756Z,10.39
2023-04-20T20:19:38.630Z,10.34
2023-04-20T20:22:06.674Z,10.29
2023-04-20T20:24:48.036Z,10.28
2023-04-20T20:27:18.594Z,10.25
2023-04-20T20:29:46.194Z,10.22
2023-04-20T20:32:13.704Z,10.18
2023-04-20T20:34:42.848Z,10.14
2023-04-20T20:37:10.572Z,10.11
2023-04-20T20:39:38.176Z,10.06
2023-04-20T20:42:07.129Z,10.03
2023-04-20T20:44:39.748Z,9.99
2023-04-20T20:51:20.916Z,9.91
2023-04-20T20:53:48.501Z,9.85
2023-04-20T20:56:16.202Z,9.83
2023-04-20T20:58:43.734Z,9.79
2023-04-20T21:01:11.347Z,9.75
2023-04-20T21:03:39.281Z,9.71
2023-04-20T21:06:07.019Z,9.66
2023-04-20T21:08:34.701Z,9.63
2023-04-20T21:11:02.488Z,9.60
2023-04-20T21:13:30.069Z,9.57
2023-04-20T21:15:57.937Z,9.51
2023-04-20T21:18:25.640Z,9.46
2023-04-20T21:20:53.228Z,9.44
2023-04-20T21:23:20.827Z,9.42
2023-04-20T21:25:48.474Z,9.41
2023-04-20T21:28:16.049Z,9.38
2023-04-20T21:30:43.572Z,9.36
2023-04-20T21:33:11.341Z,9.33
2023-04-20T21:35:38.905Z,9.30
2023-04-20T21:38:06.466Z,9.28
2023-04-20T21:40:34.347Z,9.29
2023-04-20T21:43:02.063Z,9.28
2023-04-20T21:45:29.646Z,9.27
2023-04-20T21:47:57.524Z,9.26
2023-04-20T21:50:27.193Z,9.23
2023-04-20T21:52:55.289Z,9.24
2023-04-20T21:55:22.788Z,9.21
2023-04-20T21:57:50.968Z,9.18
2023-04-20T22:00:18.739Z,9.12
2023-04-20T22:02:46.541Z,9.09
2023-04-20T22:05:14.208Z,9.07
2023-04-20T22:07:41.905Z,9.04
2023-04-20T22:10:09.867Z,9.01
2023-04-20T22:12:40.881Z,8.98
2023-04-20T22:15:13.644Z,8.95
2023-04-20T22:17:42.097Z,8.89
2023-04-20T22:20:11.339Z,8.84
2023-04-20T22:22:39.487Z,8.82
2023-04-20T22:25:08.676Z,8.79
2023-04-20T22:27:37.820Z,8.76
2023-04-20T22:30:06.618Z,8.73
2023-04-20T22:32:34.183Z,8.70
2023-04-20T22:35:02.014Z,8.66
2023-04-20T22:37:29.604Z,8.65
2023-04-20T22:39:57.169Z,8.61
2023-04-20T22:42:24.762Z,8.58
2023-04-20T22:45:11.855Z,8.55
2023-04-20T22:47:54.638Z,8.52
2023-04-20T22:50:22.502Z,8.49
2023-04-20T22:52:50.548Z,8.47
2023-04-20T22:55:18.158Z,8.45
2023-04-20T22:57:45.742Z,8.42
2023-04-20T23:00:14.600Z,8.39
2023-04-20T23:02:45.208Z,8.36
2023-04-20T23:05:12.912Z,8.33
2023-04-20T23:07:40.508Z,8.30
2023-04-20T23:10:09.141Z,8.28
2023-04-20T23:12:36.898Z,8.26
2023-04-20T23:15:06.076Z,8.23
2023-04-20T23:17:33.642Z,8.20
2023-04-20T23:20:01.135Z,8.18
2023-04-20T23:22:28.613Z,8.13
2023-04-20T23:24:57.528Z,8.11
2023-04-20T23:27:25.131Z,8.09
2023-04-20T23:29:52.682Z,8.04
2023-04-20T23:32:20.298Z,8.01
2023-04-20T23:34:47.855Z,8.00
2023-04-20T23:37:15.949Z,7.96
2023-04-20T23:39:43.441Z,7.94
2023-04-20T23:42:12.049Z,7.95
2023-04-20T23:44:39.536Z,7.95
2023-04-20T23:47:07.100Z,7.94
2023-04-20T23:49:37.336Z,7.93
2023-04-20T23:52:05.759Z,7.93
2023-04-20T23:54:33.554Z,7.92
2023-04-20T23:57:01.247Z,7.90
2023-04-20T23:59:28.836Z,7.88
